sensor_id;sensor_type;location;lat;lon;timestamp;P1;durP1;ratioP1;P2;durP2;ratioP2
4174;SDS011;2101;48.290;14.382;2023-04-16T01:02:19;33.43;;;7.00;;
4174;SDS011;2101;48.290;14.382;2023-04-16T01:05:26;17.90;;;4.40;;
4174;SDS011;2101;48.290;14.382;2023-04-16T09:16:33;22.70;;;7.30;;
4174;SDS011;2101;48.290;14.382;2023-04-16T09:26:03;19.87;;;6.00;;
4174;SDS011;2101;48.290;14.382;2023-04-16T09:28:57;20.07;;;5.90;;
4174;SDS011;2101;48.290;14.382;2023-04-16T09:32:05;19.97;;;6.30;;
4174;SDS011;2101;48.290;14.382;2023-04-16T09:37:57;26.23;;;6.00;;
4174;SDS011;2101;48.290;14.382;2023-04-16T09:40:39;19.93;;;6.10;;
4174;SDS011;2101;48.290;14.382;2023-04-16T09:43:30;18.47;;;5.70;;
4174;SDS011;2101;48.290;14.382;2023-04-16T09:51:41;18.87;;;5.90;;
4174;SDS011;2101;48.290;14.382;2023-04-16T09:54:30;17.80;;;5.30;;
4174;SDS011;2101;48.290;14.382;2023-04-16T09:57:29;17.87;;;4.30;;
4174;SDS011;2101;48.290;14.382;2023-04-16T10:17:13;16.43;;;4.83;;
4174;SDS011;2101;48.290;14.382;2023-04-16T10:20:21;16.40;;;4.43;;
4174;SDS011;2101;48.290;14.382;2023-04-16T10:26:25;16.80;;;4.83;;
4174;SDS011;2101;48.290;14.382;2023-04-16T10:29:20;17.67;;;4.67;;
4174;SDS011;2101;48.290;14.382;2023-04-16T10:32:20;17.43;;;4.10;;
4174;SDS011;2101;48.290;14.382;2023-04-16T10:35:28;18.70;;;5.30;;
4174;SDS011;2101;48.290;14.382;2023-04-16T10:38:24;17.73;;;5.17;;
4174;SDS011;2101;48.290;14.382;2023-04-16T10:41:03;17.33;;;5.00;;
4174;SDS011;2101;48.290;14.382;2023-04-16T10:44:07;18.43;;;5.30;;
4174;SDS011;2101;48.290;14.382;2023-04-16T10:47:08;18.73;;;5.20;;
4174;SDS011;2101;48.290;14.382;2023-04-16T10:49:57;19.10;;;5.13;;
4174;SDS011;2101;48.290;14.382;2023-04-16T10:56:10;18.40;;;5.43;;
4174;SDS011;2101;48.290;14.382;2023-04-16T10:58:42;18.20;;;4.80;;
4174;SDS011;2101;48.290;14.382;2023-04-16T11:01:31;17.53;;;4.67;;
4174;SDS011;2101;48.290;14.382;2023-04-16T11:04:31;15.20;;;3.60;;
4174;SDS011;2101;48.290;14.382;2023-04-16T11:07:20;16.33;;;4.63;;
4174;SDS011;2101;48.290;14.382;2023-04-16T11:10:06;18.10;;;5.20;;
4174;SDS011;2101;48.290;14.382;2023-04-16T11:13:09;17.83;;;4.63;;
4174;SDS011;2101;48.290;14.382;2023-04-16T11:16:06;15.70;;;3.83;;
4174;SDS011;2101;48.290;14.382;2023-04-16T11:18:35;15.77;;;4.37;;
4174;SDS011;2101;48.290;14.382;2023-04-16T11:21:53;16.60;;;3.97;;
4174;SDS011;2101;48.290;14.382;2023-04-16T11:24:31;19.10;;;5.20;;
4174;SDS011;2101;48.290;14.382;2023-04-16T11:33:48;19.80;;;4.07;;
4174;SDS011;2101;48.290;14.382;2023-04-16T11:36:50;16.53;;;4.10;;
4174;SDS011;2101;48.290;14.382;2023-04-16T11:39:46;16.30;;;4.27;;
4174;SDS011;2101;48.290;14.382;2023-04-16T11:42:17;15.20;;;3.77;;
4174;SDS011;2101;48.290;14.382;2023-04-16T11:44:51;16.37;;;4.40;;
4174;SDS011;2101;48.290;14.382;2023-04-16T11:47:19;16.60;;;3.90;;
4174;SDS011;2101;48.290;14.382;2023-04-16T11:49:50;19.90;;;3.87;;
4174;SDS011;2101;48.290;14.382;2023-04-16T11:52:31;17.87;;;4.20;;
4174;SDS011;2101;48.290;14.382;2023-04-16T11:54:57;16.00;;;4.27;;
4174;SDS011;2101;48.290;14.382;2023-04-16T11:57:30;16.97;;;3.47;;
4174;SDS011;2101;48.290;14.382;2023-04-16T11:59:57;17.10;;;4.40;;
4174;SDS011;2101;48.290;14.382;2023-04-16T12:02:33;15.17;;;3.40;;
4174;SDS011;2101;48.290;14.382;2023-04-16T12:05:01;16.87;;;4.50;;
4174;SDS011;2101;48.290;14.382;2023-04-16T12:07:28;16.50;;;3.90;;
4174;SDS011;2101;48.290;14.382;2023-04-16T12:10:07;15.80;;;3.80;;
4174;SDS011;2101;48.290;14.382;2023-04-16T12:12:36;14.77;;;3.20;;
4174;SDS011;2101;48.290;14.382;2023-04-16T12:15:05;15.37;;;3.47;;
4174;SDS011;2101;48.290;14.382;2023-04-16T12:17:32;15.77;;;3.87;;
4174;SDS011;2101;48.290;14.382;2023-04-16T12:19:59;16.67;;;4.00;;
4174;SDS011;2101;48.290;14.382;2023-04-16T12:22:43;15.40;;;3.50;;
4174;SDS011;2101;48.290;14.382;2023-04-16T12:25:16;15.93;;;3.67;;
4174;SDS011;2101;48.290;14.382;2023-04-16T12:27:43;15.67;;;3.40;;
4174;SDS011;2101;48.290;14.382;2023-04-16T12:30:14;16.30;;;3.50;;
4174;SDS011;2101;48.290;14.382;2023-04-16T12:32:41;14.57;;;2.70;;
4174;SDS011;2101;48.290;14.382;2023-04-16T12:35:08;14.23;;;3.00;;
4174;SDS011;2101;48.290;14.382;2023-04-16T12:37:34;14.90;;;3.20;;
4174;SDS011;2101;48.290;14.382;2023-04-16T12:40:00;21.67;;;3.20;;
4174;SDS011;2101;48.290;14.382;2023-04-16T12:42:29;16.00;;;3.40;;
4174;SDS011;2101;48.290;14.382;2023-04-16T12:45:00;16.80;;;3.43;;
4174;SDS011;2101;48.290;14.382;2023-04-16T12:47:26;15.57;;;3.10;;
4174;SDS011;2101;48.290;14.382;2023-04-16T12:49:52;15.20;;;2.80;;
4174;SDS011;2101;48.290;14.382;2023-04-16T12:52:18;15.53;;;3.93;;
4174;SDS011;2101;48.290;14.382;2023-04-16T12:54:44;16.60;;;2.87;;
4174;SDS011;2101;48.290;14.382;2023-04-16T12:57:10;16.40;;;3.80;;
4174;SDS011;2101;48.290;14.382;2023-04-16T12:59:37;15.27;;;3.20;;
4174;SDS011;2101;48.290;14.382;2023-04-16T13:02:03;18.77;;;3.10;;
4174;SDS011;2101;48.290;14.382;2023-04-16T13:04:29;15.77;;;3.60;;
4174;SDS011;2101;48.290;14.382;2023-04-16T13:06:55;14.97;;;3.20;;
4174;SDS011;2101;48.290;14.382;2023-04-16T13:09:21;16.37;;;3.87;;
4174;SDS011;2101;48.290;14.382;2023-04-16T13:11:47;15.17;;;3.50;;
4174;SDS011;2101;48.290;14.382;2023-04-16T13:14:13;14.83;;;3.33;;
4174;SDS011;2101;48.290;14.382;2023-04-16T13:16:39;17.93;;;3.63;;
4174;SDS011;2101;48.290;14.382;2023-04-16T13:19:06;16.10;;;3.37;;
4174;SDS011;2101;48.290;14.382;2023-04-16T13:21:32;14.60;;;3.10;;
4174;SDS011;2101;48.290;14.382;2023-04-16T13:23:58;14.90;;;3.20;;
4174;SDS011;2101;48.290;14.382;2023-04-16T13:26:25;14.90;;;3.13;;
4174;SDS011;2101;48.290;14.382;2023-04-16T13:28:51;13.10;;;2.40;;
4174;SDS011;2101;48.290;14.382;2023-04-16T13:31:17;14.40;;;3.00;;
4174;SDS011;2101;48.290;14.382;2023-04-16T13:33:46;16.90;;;3.50;;
4174;SDS011;2101;48.290;14.382;2023-04-16T13:36:12;15.47;;;3.43;;
4174;SDS011;2101;48.290;14.382;2023-04-16T13:38:38;16.27;;;3.67;;
4174;SDS011;2101;48.290;14.382;2023-04-16T13:41:06;15.37;;;3.33;;
4174;SDS011;2101;48.290;14.382;2023-04-16T13:43:35;15.60;;;3.17;;
4174;SDS011;2101;48.290;14.382;2023-04-16T13:46:01;16.70;;;3.23;;
4174;SDS011;2101;48.290;14.382;2023-04-16T13:48:28;15.07;;;3.20;;
4174;SDS011;2101;48.290;14.382;2023-04-16T13:50:54;15.33;;;2.97;;
4174;SDS011;2101;48.290;14.382;2023-04-16T13:53:21;14.70;;;3.17;;
4174;SDS011;2101;48.290;14.382;2023-04-16T13:55:47;15.67;;;3.60;;
4174;SDS011;2101;48.290;14.382;2023-04-16T13:58:16;15.07;;;2.80;;
4174;SDS011;2101;48.290;14.382;2023-04-16T14:00:42;15.37;;;3.07;;
4174;SDS011;2101;48.290;14.382;2023-04-16T14:03:08;17.60;;;3.60;;
4174;SDS011;2101;48.290;14.382;2023-04-16T14:05:34;15.83;;;3.30;;
4174;SDS011;2101;48.290;14.382;2023-04-16T14:08:00;15.73;;;3.80;;
4174;SDS011;2101;48.290;14.382;2023-04-16T14:10:27;15.00;;;3.33;;
4174;SDS011;2101;48.290;14.382;2023-04-16T14:12:53;16.20;;;3.73;;
4174;SDS011;2101;48.290;14.382;2023-04-16T14:15:19;15.00;;;3.50;;
4174;SDS011;2101;48.290;14.382;2023-04-16T14:17:48;18.33;;;4.13;;
4174;SDS011;2101;48.290;14.382;2023-04-16T14:20:22;15.50;;;3.57;;
4174;SDS011;2101;48.290;14.382;2023-04-16T14:22:49;14.33;;;3.10;;
4174;SDS011;2101;48.290;14.382;2023-04-16T14:25:33;15.23;;;3.60;;
4174;SDS011;2101;48.290;14.382;2023-04-16T14:28:29;16.00;;;3.27;;
4174;SDS011;2101;48.290;14.382;2023-04-16T14:31:16;14.27;;;2.97;;
4174;SDS011;2101;48.290;14.382;2023-04-16T14:34:02;15.30;;;3.00;;
4174;SDS011;2101;48.290;14.382;2023-04-16T14:36:47;15.90;;;3.50;;
4174;SDS011;2101;48.290;14.382;2023-04-16T14:39:18;14.60;;;3.30;;
4174;SDS011;2101;48.290;14.382;2023-04-16T14:41:47;15.60;;;3.67;;
4174;SDS011;2101;48.290;14.382;2023-04-16T14:44:23;18.60;;;3.60;;
4174;SDS011;2101;48.290;14.382;2023-04-16T14:46:50;16.93;;;3.10;;
4174;SDS011;2101;48.290;14.382;2023-04-16T14:49:16;15.50;;;3.40;;
4174;SDS011;2101;48.290;14.382;2023-04-16T14:51:42;14.03;;;2.40;;
4174;SDS011;2101;48.290;14.382;2023-04-16T14:54:10;14.87;;;3.10;;
4174;SDS011;2101;48.290;14.382;2023-04-16T14:56:36;15.97;;;3.20;;
4174;SDS011;2101;48.290;14.382;2023-04-16T14:59:02;15.60;;;2.93;;
4174;SDS011;2101;48.290;14.382;2023-04-16T15:01:29;15.30;;;2.37;;
4174;SDS011;2101;48.290;14.382;2023-04-16T15:03:56;15.37;;;2.73;;
4174;SDS011;2101;48.290;14.382;2023-04-16T15:06:23;14.00;;;2.60;;
4174;SDS011;2101;48.290;14.382;2023-04-16T15:08:49;14.57;;;2.40;;
4174;SDS011;2101;48.290;14.382;2023-04-16T15:11:15;14.50;;;2.80;;
4174;SDS011;2101;48.290;14.382;2023-04-16T15:13:41;14.47;;;2.47;;
4174;SDS011;2101;48.290;14.382;2023-04-16T15:16:07;13.30;;;2.20;;
4174;SDS011;2101;48.290;14.382;2023-04-16T15:18:36;14.50;;;2.90;;
4174;SDS011;2101;48.290;14.382;2023-04-16T15:21:02;15.77;;;2.40;;
4174;SDS011;2101;48.290;14.382;2023-04-16T15:23:29;23.43;;;2.60;;
4174;SDS011;2101;48.290;14.382;2023-04-16T15:25:55;19.47;;;3.30;;
4174;SDS011;2101;48.290;14.382;2023-04-16T15:28:21;15.20;;;2.50;;
4174;SDS011;2101;48.290;14.382;2023-04-16T15:30:47;13.80;;;2.50;;
4174;SDS011;2101;48.290;14.382;2023-04-16T15:33:14;14.70;;;2.57;;
4174;SDS011;2101;48.290;14.382;2023-04-16T15:35:40;14.23;;;2.37;;
4174;SDS011;2101;48.290;14.382;2023-04-16T15:38:06;14.20;;;2.60;;
4174;SDS011;2101;48.290;14.382;2023-04-16T15:40:33;16.50;;;2.57;;
4174;SDS011;2101;48.290;14.382;2023-04-16T15:42:59;13.90;;;2.43;;
4174;SDS011;2101;48.290;14.382;2023-04-16T15:45:25;13.30;;;2.20;;
4174;SDS011;2101;48.290;14.382;2023-04-16T15:47:51;13.97;;;2.30;;
4174;SDS011;2101;48.290;14.382;2023-04-16T15:50:17;15.10;;;2.87;;
4174;SDS011;2101;48.290;14.382;2023-04-16T15:52:46;13.70;;;2.30;;
4174;SDS011;2101;48.290;14.382;2023-04-16T15:55:15;14.20;;;2.63;;
4174;SDS011;2101;48.290;14.382;2023-04-16T15:57:42;14.10;;;2.43;;
4174;SDS011;2101;48.290;14.382;2023-04-16T16:00:08;15.47;;;2.77;;
4174;SDS011;2101;48.290;14.382;2023-04-16T16:02:39;16.00;;;2.80;;
4174;SDS011;2101;48.290;14.382;2023-04-16T16:05:07;13.03;;;2.17;;
4174;SDS011;2101;48.290;14.382;2023-04-16T16:07:34;18.83;;;2.40;;
4174;SDS011;2101;48.290;14.382;2023-04-16T16:10:02;14.17;;;2.63;;
4174;SDS011;2101;48.290;14.382;2023-04-16T16:12:30;13.37;;;2.47;;
4174;SDS011;2101;48.290;14.382;2023-04-16T16:14:57;16.70;;;2.50;;
4174;SDS011;2101;48.290;14.382;2023-04-16T16:17:23;16.70;;;2.83;;
4174;SDS011;2101;48.290;14.382;2023-04-16T16:19:50;13.40;;;2.30;;
4174;SDS011;2101;48.290;14.382;2023-04-16T16:22:16;14.10;;;1.63;;
4174;SDS011;2101;48.290;14.382;2023-04-16T16:24:53;12.30;;;1.53;;
4174;SDS011;2101;48.290;14.382;2023-04-16T16:27:29;13.40;;;1.73;;
4174;SDS011;2101;48.290;14.382;2023-04-16T16:29:55;14.70;;;1.67;;
4174;SDS011;2101;48.290;14.382;2023-04-16T16:32:21;12.13;;;1.50;;
4174;SDS011;2101;48.290;14.382;2023-04-16T16:34:48;12.97;;;1.90;;
4174;SDS011;2101;48.290;14.382;2023-04-16T16:37:17;12.63;;;1.73;;
4174;SDS011;2101;48.290;14.382;2023-04-16T16:39:43;22.33;;;2.83;;
4174;SDS011;2101;48.290;14.382;2023-04-16T16:42:09;13.47;;;2.03;;
4174;SDS011;2101;48.290;14.382;2023-04-16T16:44:35;12.47;;;1.80;;
4174;SDS011;2101;48.290;14.382;2023-04-16T16:47:02;14.13;;;2.73;;
4174;SDS011;2101;48.290;14.382;2023-04-16T16:49:28;14.30;;;2.43;;
4174;SDS011;2101;48.290;14.382;2023-04-16T16:51:54;13.13;;;2.23;;
4174;SDS011;2101;48.290;14.382;2023-04-16T16:54:22;13.80;;;2.13;;
4174;SDS011;2101;48.290;14.382;2023-04-16T16:56:48;14.10;;;2.70;;
4174;SDS011;2101;48.290;14.382;2023-04-16T16:59:26;13.90;;;2.63;;
4174;SDS011;2101;48.290;14.382;2023-04-16T17:02:37;13.93;;;2.70;;
4174;SDS011;2101;48.290;14.382;2023-04-16T17:05:09;13.37;;;2.40;;
4174;SDS011;2101;48.290;14.382;2023-04-16T17:08:03;13.80;;;2.63;;
4174;SDS011;2101;48.290;14.382;2023-04-16T17:13:36;13.33;;;2.03;;
4174;SDS011;2101;48.290;14.382;2023-04-16T17:16:37;12.47;;;1.63;;
4174;SDS011;2101;48.290;14.382;2023-04-16T17:19:25;13.70;;;2.00;;
4174;SDS011;2101;48.290;14.382;2023-04-16T17:22:18;12.70;;;1.87;;
4174;SDS011;2101;48.290;14.382;2023-04-16T17:34:33;12.90;;;1.60;;
4174;SDS011;2101;48.290;14.382;2023-04-16T17:37:39;12.37;;;1.97;;
4174;SDS011;2101;48.290;14.382;2023-04-16T17:43:23;13.47;;;2.13;;
4174;SDS011;2101;48.290;14.382;2023-04-16T17:49:15;13.10;;;2.10;;
4174;SDS011;2101;48.290;14.382;2023-04-16T17:51:43;12.50;;;1.87;;
4174;SDS011;2101;48.290;14.382;2023-04-16T17:55:01;13.37;;;2.43;;
4174;SDS011;2101;48.290;14.382;2023-04-16T17:57:42;13.97;;;2.60;;
4174;SDS011;2101;48.290;14.382;2023-04-16T18:01:00;13.73;;;2.47;;
4174;SDS011;2101;48.290;14.382;2023-04-16T18:03:52;15.90;;;2.37;;
4174;SDS011;2101;48.290;14.382;2023-04-16T18:07:15;14.63;;;2.40;;
4174;SDS011;2101;48.290;14.382;2023-04-16T18:09:45;13.57;;;2.37;;
4174;SDS011;2101;48.290;14.382;2023-04-16T18:12:11;13.87;;;2.50;;
4174;SDS011;2101;48.290;14.382;2023-04-16T18:14:51;14.07;;;2.60;;
4174;SDS011;2101;48.290;14.382;2023-04-16T18:17:21;13.70;;;2.20;;
4174;SDS011;2101;48.290;14.382;2023-04-16T18:19:51;14.63;;;2.53;;
4174;SDS011;2101;48.290;14.382;2023-04-16T18:22:18;15.03;;;2.90;;
4174;SDS011;2101;48.290;14.382;2023-04-16T20:13:48;12.50;;;2.23;;
4174;SDS011;2101;48.290;14.382;2023-04-16T20:16:14;15.00;;;2.70;;
4174;SDS011;2101;48.290;14.382;2023-04-16T20:18:41;13.77;;;2.87;;
4174;SDS011;2101;48.290;14.382;2023-04-16T20:21:10;18.50;;;2.83;;
4174;SDS011;2101;48.290;14.382;2023-04-16T20:23:36;14.00;;;2.80;;
4174;SDS011;2101;48.290;14.382;2023-04-16T20:26:02;15.47;;;2.80;;
4174;SDS011;2101;48.290;14.382;2023-04-16T20:28:30;13.07;;;2.27;;
